Time;durP1;ratioP1;P1;durP2;ratioP2;P2;SDS_P1;SDS_P2;PMS_P1;PMS_P2;Temp;Humidity;BMP_temperature;BMP_pressure;BME280_temperature;BME280_humidity;BME280_pressure;Samples;Min_cycle;Max_cycle;Signal;HPM_P1;HPM_P2
2022/01/18 06:00:41;;;;;;;25.83;19.20;;;7.50;97.20;;;;;;1707275;28;20214;-87
2022/01/18 06:01:34;;;;;;;27.13;20.05;;;7.50;97.20;;;;;;1707714;28;20293;-87
2022/01/18 06:02:36;;;;;;;20.90;18.63;;;7.50;97.20;;;;;;1707609;28;20202;-87
2022/01/18 06:03:30;;;;;;;24.45;18.92;;;7.50;97.20;;;;;;1707680;28;20269;-87
2022/01/18 06:06:54;;;;;;;20.02;17.35;;;7.50;97.20;;;;;;1700983;29;20245;-87
2022/01/18 06:07:44;;;;;;;22.17;18.85;;;7.50;97.20;;;;;;1700647;29;20678;-86
2022/01/18 06:08:36;;;;;;;24.93;19.70;;;7.50;97.20;;;;;;1700893;29;20630;-86
2022/01/18 06:09:27;;;;;;;22.80;18.35;;;7.50;97.20;;;;;;1700929;29;20208;-86
2022/01/18 06:10:18;;;;;;;22.47;19.30;;;7.50;97.20;;;;;;1705601;29;20233;-88
2022/01/18 06:11:10;;;;;;;20.33;18.17;;;7.50;97.20;;;;;;1708434;28;20218;-86
2022/01/18 06:12:01;;;;;;;25.02;18.90;;;7.50;97.20;;;;;;1706081;28;20576;-87
2022/01/18 06:12:52;;;;;;;20.80;17.75;;;7.50;97.20;;;;;;1707574;28;20244;-87
2022/01/18 06:13:44;;;;;;;25.00;18.60;;;7.50;97.20;;;;;;1707225;28;20202;-87
2022/01/18 06:14:35;;;;;;;24.30;18.80;;;7.50;97.20;;;;;;1707707;28;20474;-86
2022/01/18 06:15:27;;;;;;;23.13;18.80;;;7.50;97.20;;;;;;1707458;28;20210;-86
2022/01/18 06:16:19;;;;;;;26.23;19.95;;;7.50;97.20;;;;;;1707918;28;20237;-86
2022/01/18 06:17:10;;;;;;;22.60;18.00;;;7.50;97.20;;;;;;1707485;28;20301;-87
2022/01/18 06:18:01;;;;;;;24.52;19.13;;;7.50;97.20;;;;;;1711160;28;20233;-86
2022/01/18 06:18:53;;;;;;;23.07;19.60;;;7.50;97.20;;;;;;1709778;28;20215;-87
2022/01/18 06:19:44;;;;;;;22.83;18.58;;;7.50;97.20;;;;;;1707768;28;20884;-87
2022/01/18 06:20:36;;;;;;;23.17;18.63;;;7.50;97.20;;;;;;1707351;28;20665;-87
2022/01/18 06:21:26;;;;;;;22.10;19.65;;;7.50;97.20;;;;;;1707540;28;20461;-87
2022/01/18 06:22:18;;;;;;;23.37;19.97;;;7.50;97.20;;;;;;1707423;28;20197;-87
2022/01/18 06:23:10;;;;;;;25.48;19.63;;;7.50;97.20;;;;;;1707571;28;20230;-87
2022/01/18 06:24:02;;;;;;;23.52;19.60;;;7.50;97.20;;;;;;1707244;28;20265;-87
2022/01/18 06:24:53;;;;;;;23.83;19.45;;;7.50;97.20;;;;;;1707593;28;20572;-86
2022/01/18 06:25:44;;;;;;;23.50;18.83;;;7.50;97.20;;;;;;1707755;28;20255;-86
2022/01/18 06:26:36;;;;;;;29.63;19.70;;;7.50;97.20;;;;;;1707400;28;20194;-87
2022/01/18 06:27:28;;;;;;;23.65;19.13;;;7.50;97.20;;;;;;1707451;28;20241;-86
2022/01/18 06:28:18;;;;;;;24.30;19.02;;;7.50;97.20;;;;;;1707767;28;20207;-87
2022/01/18 06:29:10;;;;;;;26.03;20.03;;;7.50;97.20;;;;;;1703243;28;20195;-86
2022/01/18 06:30:01;;;;;;;27.00;20.23;;;7.50;97.20;;;;;;1702273;29;20207;-87
2022/01/18 06:30:53;;;;;;;23.75;20.88;;;7.50;97.20;;;;;;1708114;29;20301;-87
2022/01/18 06:31:45;;;;;;;22.48;19.15;;;7.50;97.20;;;;;;1708893;28;20211;-86
2022/01/18 06:32:38;;;;;;;24.38;20.08;;;7.50;97.20;;;;;;1708968;28;20207;-86
2022/01/18 06:33:29;;;;;;;23.70;19.70;;;7.50;97.20;;;;;;1708769;28;20662;-87
2022/01/18 06:34:20;;;;;;;29.13;21.30;;;7.50;97.20;;;;;;1708545;28;20550;-87
2022/01/18 06:35:13;;;;;;;23.80;19.75;;;7.50;97.20;;;;;;1708355;28;20825;-86
2022/01/18 06:36:05;;;;;;;25.60;21.50;;;7.50;97.20;;;;;;1708033;28;20207;-86
2022/01/18 06:36:57;;;;;;;25.27;19.42;;;7.50;97.20;;;;;;1708524;28;20199;-86
2022/01/18 06:37:48;;;;;;;25.40;20.48;;;7.50;97.20;;;;;;1708219;28;20214;-87
2022/01/18 06:38:40;;;;;;;30.80;20.87;;;7.50;97.20;;;;;;1706669;28;20281;-86
2022/01/18 06:39:31;;;;;;;24.35;20.98;;;7.50;97.20;;;;;;1701390;29;20443;-86
2022/01/18 06:40:22;;;;;;;24.50;19.98;;;7.50;97.20;;;;;;1701540;29;20203;-86
2022/01/18 06:41:14;;;;;;;27.83;21.60;;;7.50;97.20;;;;;;1701567;29;20210;-87
2022/01/18 06:42:07;;;;;;;25.42;20.20;;;7.50;97.20;;;;;;1702288;29;20823;-87
2022/01/18 06:42:59;;;;;;;25.20;21.10;;;7.50;97.20;;;;;;1701957;29;20207;-87
2022/01/18 06:43:50;;;;;;;26.40;20.60;;;7.50;97.20;;;;;;1701961;29;20253;-87
2022/01/18 06:44:41;;;;;;;25.23;21.00;;;7.50;97.20;;;;;;1702036;29;20203;-86
2022/01/18 06:45:33;;;;;;;27.08;21.50;;;7.50;97.20;;;;;;1702236;29;20458;-86
2022/01/18 06:46:25;;;;;;;28.38;22.17;;;7.50;97.20;;;;;;1702128;29;20592;-86
2022/01/18 06:47:17;;;;;;;27.75;21.23;;;7.50;97.20;;;;;;1702354;29;20214;-86
2022/01/18 06:48:08;;;;;;;28.08;22.38;;;7.50;97.20;;;;;;1701822;29;20234;-87
2022/01/18 06:48:59;;;;;;;26.27;21.30;;;7.50;97.20;;;;;;1705310;29;20642;-86
2022/01/18 06:49:51;;;;;;;25.60;20.73;;;7.50;97.20;;;;;;1708514;28;20221;-86
2022/01/18 06:50:42;;;;;;;30.25;21.15;;;7.50;97.20;;;;;;1708645;28;20242;-87
2022/01/18 06:51:34;;;;;;;27.53;21.10;;;7.50;97.20;;;;;;1708492;28;20293;-86
2022/01/18 06:52:24;;;;;;;24.98;20.35;;;7.50;97.20;;;;;;1708676;28;20236;-86
2022/01/18 06:53:16;;;;;;;26.77;21.93;;;7.50;97.20;;;;;;1708626;28;20206;-86
2022/01/18 06:54:13;;;;;;;25.30;20.90;;;7.50;97.20;;;;;;1708944;28;20288;-86
2022/01/18 06:55:06;;;;;;;28.13;21.42;;;7.50;97.20;;;;;;1708881;28;20222;-86
2022/01/18 06:55:58;;;;;;;25.83;20.27;;;7.50;97.20;;;;;;1708531;28;20206;-86
2022/01/18 06:56:50;;;;;;;26.80;20.35;;;7.50;97.20;;;;;;1708698;28;20218;-86
2022/01/18 06:57:42;;;;;;;29.48;21.85;;;7.50;97.20;;;;;;1708169;28;20198;-86
2022/01/18 06:58:32;;;;;;;27.92;21.40;;;7.50;97.20;;;;;;1708558;28;20245;-86
2022/01/18 06:59:24;;;;;;;28.43;20.73;;;7.50;97.20;;;;;;1701920;28;20226;-86
2022/01/18 07:00:15;;;;;;;30.75;22.50;;;7.50;97.20;;;;;;1701974;29;20666;-86
2022/01/18 07:01:07;;;;;;;27.00;20.40;;;7.50;97.20;;;;;;1701906;29;20241;-86
2022/01/18 07:01:58;;;;;;;23.70;19.77;;;7.50;97.20;;;;;;1702076;29;20215;-86
2022/01/18 07:02:51;;;;;;;25.07;20.03;;;7.50;97.20;;;;;;1701758;29;20298;-86
2022/01/18 07:03:42;;;;;;;26.00;19.73;;;7.50;97.20;;;;;;1701931;29;20218;-86
2022/01/18 07:04:34;;;;;;;22.95;20.38;;;7.50;97.20;;;;;;1701810;29;20209;-86
2022/01/18 07:05:25;;;;;;;24.65;19.15;;;7.50;97.20;;;;;;1702109;29;20210;-86
2022/01/18 07:06:17;;;;;;;27.27;20.40;;;7.50;97.20;;;;;;1701783;29;20297;-86
2022/01/18 07:07:08;;;;;;;26.27;19.05;;;7.50;97.20;;;;;;1702106;29;20498;-86
2022/01/18 07:07:59;;;;;;;26.70;20.90;;;7.50;97.20;;;;;;1701598;29;20714;-86
2022/01/18 07:08:51;;;;;;;22.02;19.58;;;7.50;97.20;;;;;;1703322;29;20207;-86
2022/01/18 07:09:44;;;;;;;24.33;19.35;;;7.50;97.20;;;;;;1708678;28;20238;-86
2022/01/18 07:10:35;;;;;;;27.70;20.08;;;7.50;97.20;;;;;;1708470;28;20219;-86
2022/01/18 07:11:27;;;;;;;23.85;19.33;;;7.50;97.20;;;;;;1708485;28;20211;-86
2022/01/18 07:12:18;;;;;;;23.13;20.15;;;7.50;97.20;;;;;;1706764;28;20225;-86
2022/01/18 07:13:11;;;;;;;23.57;19.73;;;7.50;97.20;;;;;;1708415;28;20241;-86
2022/01/18 07:14:02;;;;;;;25.20;20.23;;;7.50;97.20;;;;;;1709070;28;20558;-86
2022/01/18 07:14:54;;;;;;;24.10;18.30;;;7.50;97.20;;;;;;1708632;28;20214;-86
2022/01/18 07:15:44;;;;;;;24.08;18.83;;;7.50;97.20;;;;;;1708381;28;20466;-86
2022/01/18 07:16:36;;;;;;;26.07;20.30;;;7.50;97.20;;;;;;1708334;28;20281;-87
2022/01/18 07:17:27;;;;;;;23.60;19.35;;;7.50;97.20;;;;;;1708326;28;20218;-86
2022/01/18 07:18:20;;;;;;;25.03;19.50;;;7.40;97.20;;;;;;1708152;28;20212;-86
2022/01/18 07:19:11;;;;;;;20.55;17.58;;;7.40;97.20;;;;;;1703823;28;20814;-86
2022/01/18 07:20:04;;;;;;;23.40;18.83;;;7.40;97.20;;;;;;1701798;29;20683;-86
2022/01/18 07:20:57;;;;;;;23.35;20.10;;;7.40;97.20;;;;;;1702326;29;20274;-86
2022/01/18 07:21:49;;;;;;;22.08;18.55;;;7.40;97.20;;;;;;1702974;29;20203;-86
2022/01/18 07:22:42;;;;;;;22.17;17.40;;;7.30;97.20;;;;;;1702119;29;20203;-86
2022/01/18 07:23:34;;;;;;;27.33;19.92;;;7.30;97.20;;;;;;1701585;29;20238;-85
2022/01/18 07:24:37;;;;;;;21.38;18.88;;;7.30;97.20;;;;;;1701702;29;20722;-86
2022/01/18 07:25:29;;;;;;;24.08;19.48;;;7.30;97.20;;;;;;1701724;29;20267;-86
2022/01/18 07:26:20;;;;;;;22.73;18.33;;;7.30;97.20;;;;;;1701905;29;20208;-85
2022/01/18 07:27:13;;;;;;;25.40;19.13;;;7.30;97.20;;;;;;1701585;29;20203;-86
2022/01/18 07:28:04;;;;;;;23.52;19.40;;;7.30;97.20;;;;;;1701332;29;20241;-86
2022/01/18 07:28:56;;;;;;;23.67;19.20;;;7.30;97.20;;;;;;1703367;29;20210;-86
2022/01/18 07:29:47;;;;;;;20.95;18.73;;;7.30;97.20;;;;;;1708335;28;20958;-86
2022/01/18 07:30:39;;;;;;;24.93;20.20;;;7.30;97.20;;;;;;1703304;28;20673;-86
2022/01/18 07:31:30;;;;;;;26.63;19.33;;;7.30;97.20;;;;;;1701842;29;20282;-86
2022/01/18 07:32:22;;;;;;;20.60;17.77;;;7.30;97.20;;;;;;1701784;29;20287;-86
2022/01/18 07:33:13;;;;;;;22.30;19.10;;;7.30;97.20;;;;;;1701782;29;20475;-86
2022/01/18 07:34:06;;;;;;;24.17;18.83;;;7.20;97.20;;;;;;1701662;29;20225;-86
2022/01/18 07:34:57;;;;;;;20.13;17.98;;;7.20;97.20;;;;;;1701804;29;20241;-86
2022/01/18 07:35:49;;;;;;;23.77;19.10;;;7.20;97.20;;;;;;1701351;29;20214;-85
2022/01/18 07:36:40;;;;;;;25.13;19.52;;;7.20;97.20;;;;;;1701904;29;20210;-85
2022/01/18 07:37:32;;;;;;;22.40;18.50;;;7.20;97.20;;;;;;1701689;29;20692;-86
2022/01/18 07:38:24;;;;;;;23.08;19.08;;;7.20;97.20;;;;;;1701573;29;20842;-86
2022/01/18 07:39:14;;;;;;;24.73;18.52;;;7.20;97.20;;;;;;1701735;29;20689;-86
2022/01/18 07:40:07;;;;;;;22.83;19.20;;;7.20;97.20;;;;;;1700932;29;20750;-86
2022/01/18 07:40:58;;;;;;;22.75;18.33;;;7.20;97.20;;;;;;1701766;29;20459;-83
2022/01/18 07:41:50;;;;;;;22.20;17.53;;;7.20;97.20;;;;;;1701698;29;20215;-85
2022/01/18 07:42:41;;;;;;;24.75;17.75;;;7.20;97.20;;;;;;1701784;29;20498;-86
2022/01/18 07:43:33;;;;;;;22.50;18.57;;;7.30;97.20;;;;;;1701912;29;20203;-86
2022/01/18 07:44:23;;;;;;;22.58;17.75;;;7.30;97.20;;;;;;1706220;29;20745;-86
2022/01/18 07:45:15;;;;;;;23.50;18.30;;;7.30;97.20;;;;;;1708335;28;20639;-85
2022/01/18 07:46:06;;;;;;;26.85;19.20;;;7.30;97.20;;;;;;1708203;28;20458;-86
2022/01/18 07:46:59;;;;;;;21.65;18.38;;;7.30;97.20;;;;;;1706704;28;20202;-86
2022/01/18 07:47:50;;;;;;;24.13;18.33;;;7.30;97.20;;;;;;1701461;29;20702;-86
2022/01/18 07:48:42;;;;;;;22.87;18.13;;;7.30;97.20;;;;;;1701609;29;20666;-86
2022/01/18 07:49:34;;;;;;;20.98;17.10;;;7.30;97.20;;;;;;1701662;29;20207;-86
2022/01/18 07:50:26;;;;;;;20.63;16.30;;;7.30;97.20;;;;;;1701509;29;20203;-86
2022/01/18 07:51:17;;;;;;;21.05;17.55;;;7.30;97.20;;;;;;1701659;29;20207;-86
2022/01/18 07:52:09;;;;;;;20.20;18.00;;;7.30;97.20;;;;;;1701553;29;20201;-86
2022/01/18 07:52:59;;;;;;;21.45;17.10;;;7.30;97.20;;;;;;1701780;29;20222;-86
2022/01/18 07:53:51;;;;;;;27.57;18.20;;;7.30;97.20;;;;;;1701409;29;20774;-86
2022/01/18 07:54:42;;;;;;;23.33;18.98;;;7.30;97.20;;;;;;1702023;29;20939;-85
2022/01/18 07:55:36;;;;;;;24.73;19.20;;;7.30;97.20;;;;;;1701834;29;20641;-85
2022/01/18 07:56:26;;;;;;;23.35;19.23;;;7.30;97.20;;;;;;1701819;29;21008;-85
2022/01/18 07:57:20;;;;;;;22.43;18.97;;;7.30;97.20;;;;;;1701733;29;20742;-85
2022/01/18 07:58:11;;;;;;;23.98;19.60;;;7.30;97.20;;;;;;1701358;29;20316;-85
2022/01/18 07:59:02;;;;;;;25.03;18.97;;;7.30;97.20;;;;;;1701748;29;20223;-85
2022/01/18 07:59:53;;;;;;;21.67;18.05;;;7.30;97.20;;;;;;1701427;29;20234;-86
2022/01/18 08:00:47;;;;;;;25.87;19.07;;;7.30;97.20;;;;;;1701489;29;20709;-86
2022/01/18 08:01:38;;;;;;;20.63;18.17;;;7.30;97.20;;;;;;1701656;29;20605;-86
2022/01/18 08:02:31;;;;;;;21.95;18.77;;;7.30;97.20;;;;;;1701787;29;20556;-86
2022/01/18 08:03:23;;;;;;;24.05;18.30;;;7.30;97.20;;;;;;1701644;29;20733;-86
2022/01/18 08:04:14;;;;;;;22.65;18.40;;;7.30;97.20;;;;;;1701382;29;20204;-86
2022/01/18 08:05:10;;;;;;;20.97;17.00;;;7.30;97.20;;;;;;1701472;29;20199;-86
2022/01/18 08:06:02;;;;;;;22.45;18.08;;;7.20;97.20;;;;;;1703465;29;20242;-86
2022/01/18 08:06:53;;;;;;;21.40;18.70;;;7.30;97.20;;;;;;1704598;29;20230;-86
2022/01/18 08:07:45;;;;;;;19.35;17.23;;;7.30;97.20;;;;;;1701336;29;20214;-85
2022/01/18 08:08:37;;;;;;;22.17;17.50;;;7.30;97.20;;;;;;1701486;29;20215;-86
2022/01/18 08:09:29;;;;;;;21.75;18.35;;;7.30;97.20;;;;;;1701463;29;20676;-85
2022/01/18 08:10:21;;;;;;;24.10;18.70;;;7.30;97.20;;;;;;1701378;29;20235;-85
2022/01/18 08:11:13;;;;;;;20.70;17.70;;;7.30;97.20;;;;;;1701385;29;20659;-87
2022/01/18 08:12:04;;;;;;;21.83;17.98;;;7.30;97.20;;;;;;1701423;29;20253;-85
2022/01/18 08:12:56;;;;;;;23.40;18.80;;;7.30;97.20;;;;;;1701401;29;20670;-85
2022/01/18 08:13:48;;;;;;;24.70;18.85;;;7.30;97.20;;;;;;1702268;29;20290;-85
2022/01/18 08:14:45;;;;;;;22.58;18.27;;;7.40;97.20;;;;;;1702243;29;20209;-85
2022/01/18 08:15:38;;;;;;;22.73;19.00;;;7.40;97.20;;;;;;1701555;29;20203;-86
2022/01/18 08:16:47;;;;;;;21.77;17.75;;;7.40;97.20;;;;;;1701390;29;20239;-86
2022/01/18 08:17:40;;;;;;;21.17;17.48;;;7.40;97.20;;;;;;1701178;29;20207;-85
2022/01/18 08:18:31;;;;;;;19.70;17.30;;;7.40;97.20;;;;;;1701520;29;20263;-86
2022/01/18 08:19:23;;;;;;;23.63;18.30;;;7.50;97.20;;;;;;1702413;29;20199;-86
2022/01/18 08:20:18;;;;;;;23.45;19.15;;;7.50;97.20;;;;;;1702378;29;20676;-86
2022/01/18 08:21:08;;;;;;;22.20;18.42;;;7.50;97.20;;;;;;1701614;29;20410;-86
2022/01/18 08:22:00;;;;;;;26.40;19.53;;;7.50;97.20;;;;;;1701600;29;20235;-86
2022/01/18 08:22:51;;;;;;;22.33;18.38;;;7.50;97.20;;;;;;1703284;29;20253;-85
2022/01/18 08:23:43;;;;;;;21.27;18.90;;;7.50;97.20;;;;;;1704741;29;20214;-86
2022/01/18 08:24:34;;;;;;;24.55;18.48;;;7.60;97.20;;;;;;1702489;29;20207;-86
2022/01/18 08:25:26;;;;;;;23.65;19.15;;;7.50;97.20;;;;;;1702427;29;20628;-86
2022/01/18 08:26:17;;;;;;;23.33;19.20;;;7.50;97.20;;;;;;1702762;29;20210;-86
2022/01/18 08:27:09;;;;;;;22.40;18.25;;;7.50;97.20;;;;;;1702581;29;20662;-85
2022/01/18 08:28:02;;;;;;;23.20;19.02;;;7.50;97.20;;;;;;1702553;29;20234;-86
2022/01/18 08:28:53;;;;;;;25.88;18.60;;;7.50;97.20;;;;;;1702566;29;20203;-85
2022/01/18 08:29:44;;;;;;;22.50;19.00;;;7.50;97.20;;;;;;1702451;29;20222;-86
2022/01/18 08:30:36;;;;;;;21.37;17.57;;;7.50;97.20;;;;;;1702790;29;20229;-86
2022/01/18 08:31:26;;;;;;;22.15;18.67;;;7.50;97.20;;;;;;1702705;29;20203;-86
2022/01/18 08:32:18;;;;;;;21.60;18.07;;;7.60;97.20;;;;;;1702687;29;20272;-86
2022/01/18 08:33:10;;;;;;;23.40;18.33;;;7.60;97.20;;;;;;1702574;29;20207;-86
2022/01/18 08:34:01;;;;;;;23.08;18.55;;;7.60;97.20;;;;;;1705318;29;20225;-86
2022/01/18 08:34:52;;;;;;;25.77;17.87;;;7.60;97.20;;;;;;1709697;28;20218;-86
2022/01/18 08:35:45;;;;;;;22.10;17.52;;;7.60;97.20;;;;;;1709451;28;20221;-86
2022/01/18 08:36:36;;;;;;;21.40;18.55;;;7.70;97.20;;;;;;1709179;28;20230;-86
2022/01/18 08:37:27;;;;;;;23.08;18.20;;;7.70;97.20;;;;;;1709332;28;20573;-86
2022/01/18 08:38:20;;;;;;;24.00;17.87;;;7.70;97.20;;;;;;1708872;28;20264;-86
2022/01/18 08:39:12;;;;;;;22.65;18.02;;;7.80;97.20;;;;;;1709096;28;20496;-86
2022/01/18 08:40:04;;;;;;;20.15;17.63;;;7.80;97.20;;;;;;1709255;28;20231;-86
2022/01/18 08:40:56;;;;;;;23.75;17.90;;;7.80;97.20;;;;;;1709246;28;20226;-86
2022/01/18 08:41:47;;;;;;;21.90;17.60;;;7.90;97.20;;;;;;1709175;28;20213;-86
2022/01/18 08:42:39;;;;;;;21.23;17.93;;;7.90;97.20;;;;;;1708936;28;20265;-86
2022/01/18 08:43:31;;;;;;;22.98;17.27;;;7.90;97.20;;;;;;1708927;28;20234;-87
2022/01/18 08:44:22;;;;;;;20.63;17.05;;;8.00;97.20;;;;;;1703371;28;20195;-88
2022/01/18 08:45:14;;;;;;;20.77;17.55;;;8.00;97.20;;;;;;1703221;29;20222;-87
2022/01/18 08:46:05;;;;;;;21.00;17.95;;;8.00;97.20;;;;;;1708849;28;20605;-87
2022/01/18 08:46:57;;;;;;;21.30;16.80;;;8.10;97.20;;;;;;1708414;28;20291;-86
2022/01/18 08:47:50;;;;;;;18.33;15.70;;;8.10;97.20;;;;;;1708536;28;20210;-86
2022/01/18 08:48:41;;;;;;;22.98;15.35;;;8.20;97.20;;;;;;1708712;28;20202;-86
2022/01/18 08:49:32;;;;;;;22.70;17.40;;;8.20;97.20;;;;;;1708343;28;20209;-86
2022/01/18 08:50:23;;;;;;;19.42;15.63;;;8.20;97.20;;;;;;1708570;28;20237;-86
2022/01/18 08:51:16;;;;;;;19.97;15.20;;;8.30;97.20;;;;;;1708889;28;20198;-86
2022/01/18 08:52:08;;;;;;;18.42;15.05;;;8.30;97.20;;;;;;1708707;28;20221;-86
2022/01/18 08:52:59;;;;;;;19.15;14.25;;;8.40;97.20;;;;;;1709071;28;20230;-86
2022/01/18 08:53:50;;;;;;;16.08;13.85;;;8.40;97.20;;;;;;1707573;28;20582;-85
2022/01/18 08:54:43;;;;;;;19.07;15.17;;;8.50;97.20;;;;;;1702027;29;20199;-85
2022/01/18 08:55:35;;;;;;;15.95;14.07;;;8.60;97.20;;;;;;1701961;29;20541;-86
2022/01/18 08:56:25;;;;;;;21.05;13.63;;;8.60;97.20;;;;;;1702233;29;20214;-86
2022/01/18 08:57:18;;;;;;;16.17;13.57;;;8.70;97.20;;;;;;1702198;29;20214;-85
2022/01/18 08:58:08;;;;;;;16.40;14.15;;;8.80;97.20;;;;;;1701815;29;20494;-86
2022/01/18 08:59:00;;;;;;;18.30;13.87;;;8.90;97.20;;;;;;1702324;29;20203;-86
2022/01/18 08:59:53;;;;;;;16.23;13.55;;;9.00;97.20;;;;;;1702097;29;20242;-86
2022/01/18 09:00:46;;;;;;;17.27;14.10;;;9.00;97.20;;;;;;1701938;29;20231;-86
2022/01/18 09:01:37;;;;;;;17.20;14.35;;;9.10;97.20;;;;;;1702375;29;20211;-86
2022/01/18 09:02:29;;;;;;;17.73;14.38;;;9.20;97.20;;;;;;1702347;29;20207;-86
2022/01/18 09:03:20;;;;;;;16.10;14.40;;;9.30;97.20;;;;;;1701997;29;20238;-86
2022/01/18 09:04:11;;;;;;;19.20;15.03;;;9.30;97.20;;;;;;1705027;29;20202;-85
2022/01/18 09:05:03;;;;;;;17.17;15.35;;;9.40;97.20;;;;;;1708550;28;20218;-86
2022/01/18 09:05:56;;;;;;;16.92;14.68;;;9.50;97.20;;;;;;1708308;28;20572;-86
2022/01/18 09:06:50;;;;;;;18.70;14.90;;;9.50;97.20;;;;;;1708309;28;20249;-86
2022/01/18 09:07:42;;;;;;;19.35;14.48;;;9.60;97.20;;;;;;1708445;28;20202;-86
2022/01/18 09:08:36;;;;;;;18.52;13.90;;;9.60;97.20;;;;;;1709022;28;20217;-86
2022/01/18 09:09:27;;;;;;;15.43;12.40;;;9.60;97.20;;;;;;1709060;28;20303;-86
2022/01/18 09:10:19;;;;;;;16.67;14.53;;;9.60;97.20;;;;;;1709081;28;20277;-86
2022/01/18 09:11:13;;;;;;;17.33;14.27;;;9.60;97.20;;;;;;1708962;28;20210;-85
2022/01/18 09:12:04;;;;;;;16.27;13.82;;;9.60;97.20;;;;;;1708833;28;20207;-86
2022/01/18 09:12:56;;;;;;;16.25;13.98;;;9.60;97.20;;;;;;1708446;28;20203;-86
2022/01/18 09:13:47;;;;;;;21.08;15.73;;;9.60;97.20;;;;;;1708298;28;20207;-86
2022/01/18 09:14:39;;;;;;;17.43;14.10;;;9.60;97.20;;;;;;1702089;28;20199;-86
2022/01/18 09:15:29;;;;;;;18.73;14.35;;;9.60;97.20;;;;;;1702245;29;20203;-86
2022/01/18 09:16:22;;;;;;;16.43;13.67;;;9.60;97.20;;;;;;1701999;29;20207;-86
2022/01/18 09:17:12;;;;;;;16.70;13.88;;;9.60;97.20;;;;;;1701977;29;20250;-86
2022/01/18 09:18:04;;;;;;;19.57;14.40;;;9.60;97.20;;;;;;1701894;29;20210;-86
2022/01/18 09:18:56;;;;;;;20.45;15.57;;;9.70;97.20;;;;;;1701996;29;20218;-86
2022/01/18 09:19:47;;;;;;;17.80;14.52;;;9.70;97.20;;;;;;1701950;29;20211;-86
2022/01/18 09:20:39;;;;;;;18.60;14.60;;;9.60;97.20;;;;;;1701921;29;20231;-85
2022/01/18 09:21:33;;;;;;;17.52;13.80;;;9.60;97.20;;;;;;1702327;29;20548;-86
2022/01/18 09:22:26;;;;;;;15.82;13.85;;;9.60;97.20;;;;;;1702210;29;20574;-86
2022/01/18 09:23:16;;;;;;;17.10;14.10;;;9.60;97.20;;;;;;1701844;29;20210;-86
2022/01/18 09:24:08;;;;;;;15.60;13.20;;;9.50;97.20;;;;;;1704010;29;20200;-86
2022/01/18 09:24:59;;;;;;;15.15;13.55;;;9.50;97.20;;;;;;1708303;28;20720;-85
2022/01/18 09:25:51;;;;;;;18.80;13.50;;;9.50;97.20;;;;;;1708472;28;20566;-86
2022/01/18 09:26:42;;;;;;;19.48;14.80;;;9.40;97.20;;;;;;1708633;28;20257;-85
2022/01/18 09:27:34;;;;;;;17.67;14.40;;;9.40;97.20;;;;;;1708390;28;20198;-85
2022/01/18 09:28:26;;;;;;;20.65;15.73;;;9.40;97.20;;;;;;1708647;28;20925;-86
2022/01/18 09:29:17;;;;;;;16.98;14.43;;;9.40;97.20;;;;;;1708556;28;20658;-85
2022/01/18 09:30:10;;;;;;;16.20;14.50;;;9.40;97.20;;;;;;1708262;28;20543;-86
2022/01/18 09:31:01;;;;;;;18.25;14.77;;;9.40;97.20;;;;;;1708478;28;20210;-85
2022/01/18 09:31:53;;;;;;;16.33;14.52;;;9.30;97.20;;;;;;1708320;28;20202;-85
2022/01/18 09:32:45;;;;;;;20.23;14.93;;;9.30;97.20;;;;;;1708727;28;20592;-85
2022/01/18 09:33:36;;;;;;;20.70;15.05;;;9.30;97.20;;;;;;1705306;28;20214;-85
2022/01/18 09:34:27;;;;;;;19.02;14.40;;;9.30;97.20;;;;;;1702131;29;20246;-85
2022/01/18 09:35:19;;;;;;;16.67;14.87;;;9.30;97.20;;;;;;1701825;29;20214;-85
2022/01/18 09:36:11;;;;;;;17.00;15.02;;;9.30;97.20;;;;;;1701912;29;20581;-85
2022/01/18 09:37:02;;;;;;;17.80;14.10;;;9.30;97.20;;;;;;1702125;29;20219;-85
2022/01/18 09:37:55;;;;;;;19.08;14.18;;;9.30;97.20;;;;;;1701398;29;20820;-85
2022/01/18 09:38:46;;;;;;;17.98;13.45;;;9.30;97.20;;;;;;1702051;29;20269;-85
2022/01/18 09:39:39;;;;;;;16.20;13.20;;;9.30;97.20;;;;;;1701627;29;20346;-85
2022/01/18 09:40:33;;;;;;;15.48;13.80;;;9.30;97.20;;;;;;1701871;29;20857;-86
2022/01/18 09:41:29;;;;;;;18.95;13.05;;;9.20;97.20;;;;;;1701538;29;20285;-85
2022/01/18 09:42:21;;;;;;;16.90;12.68;;;9.30;97.20;;;;;;1701906;29;20214;-85
2022/01/18 09:43:15;;;;;;;15.70;11.20;;;9.30;97.20;;;;;;1701645;29;20254;-85
2022/01/18 09:44:08;;;;;;;12.13;10.93;;;9.30;97.20;;;;;;1707403;29;20205;-85
2022/01/18 09:45:00;;;;;;;16.80;11.25;;;9.30;97.20;;;;;;1708631;28;20230;-85
2022/01/18 09:45:52;;;;;;;15.63;12.27;;;9.30;97.20;;;;;;1708202;28;20634;-85
2022/01/18 09:46:44;;;;;;;15.85;11.77;;;9.20;97.20;;;;;;1708400;28;20206;-85
2022/01/18 09:47:36;;;;;;;13.95;11.80;;;9.20;97.20;;;;;;1707969;28;20236;-85
2022/01/18 09:48:28;;;;;;;16.23;11.80;;;9.20;97.20;;;;;;1708510;28;20230;-85
2022/01/18 09:49:19;;;;;;;14.77;12.75;;;9.10;97.20;;;;;;1708299;28;20210;-85
2022/01/18 09:50:13;;;;;;;15.23;13.30;;;9.10;97.20;;;;;;1708383;28;20202;-85
2022/01/18 09:51:05;;;;;;;16.02;13.23;;;9.10;97.20;;;;;;1708327;28;20277;-85
2022/01/18 09:51:56;;;;;;;15.70;13.90;;;9.10;97.20;;;;;;1708525;28;20273;-85
2022/01/18 09:52:52;;;;;;;17.40;13.57;;;9.10;97.20;;;;;;1708724;28;20198;-85
2022/01/18 09:53:45;;;;;;;17.08;13.32;;;9.00;97.20;;;;;;1705986;28;20277;-85
2022/01/18 09:54:36;;;;;;;15.88;14.00;;;9.00;97.20;;;;;;1701920;29;20215;-85
2022/01/18 09:55:30;;;;;;;17.50;15.20;;;9.00;97.20;;;;;;1701435;29;20659;-84
2022/01/18 09:56:22;;;;;;;16.05;13.82;;;9.00;97.20;;;;;;1701854;29;20234;-85
2022/01/18 09:57:14;;;;;;;23.33;15.43;;;9.00;97.20;;;;;;1701514;29;20254;-85
2022/01/18 09:58:07;;;;;;;18.48;14.52;;;9.00;97.20;;;;;;1701461;29;20215;-85
2022/01/18 09:58:59;;;;;;;20.67;15.85;;;9.10;97.20;;;;;;1701570;29;20694;-85
2022/01/18 09:59:50;;;;;;;21.25;16.27;;;9.10;97.20;;;;;;1701686;29;20203;-85
2022/01/18 10:00:43;;;;;;;23.70;16.67;;;9.10;97.20;;;;;;1701370;29;20238;-85
2022/01/18 10:01:33;;;;;;;19.58;16.02;;;9.10;97.20;;;;;;1701867;29;20227;-85
2022/01/18 10:02:25;;;;;;;21.83;16.63;;;9.10;97.20;;;;;;1701633;29;20202;-85
2022/01/18 10:03:30;;;;;;;22.05;16.05;;;9.10;97.20;;;;;;1702177;29;20452;-85
2022/01/18 10:04:26;;;;;;;20.67;17.25;;;9.10;97.20;;;;;;1703269;29;20235;-85
2022/01/18 10:05:24;;;;;;;20.60;16.95;;;9.10;97.20;;;;;;1703000;29;20214;-85
2022/01/18 10:06:19;;;;;;;23.00;18.20;;;9.10;97.20;;;;;;1703181;29;20211;-85
2022/01/18 10:07:10;;;;;;;19.60;15.52;;;9.10;97.20;;;;;;1702859;29;20255;-85
2022/01/18 10:08:05;;;;;;;19.23;15.57;;;9.20;97.20;;;;;;1702506;29;20203;-85
2022/01/18 10:08:59;;;;;;;19.35;15.73;;;9.20;97.20;;;;;;1703152;29;20208;-85
2022/01/18 10:09:58;;;;;;;19.48;15.20;;;9.20;97.20;;;;;;1703152;29;20214;-85
2022/01/18 10:10:51;;;;;;;20.30;16.13;;;9.20;97.20;;;;;;1702764;29;20303;-84
2022/01/18 10:12:10;;;;;;;22.35;17.65;;;9.20;97.20;;;;;;1702930;29;20215;-85
2022/01/18 10:13:01;;;;;;;19.38;17.38;;;9.20;97.20;;;;;;1702942;29;20258;-85
2022/01/18 10:13:53;;;;;;;20.30;16.33;;;9.10;97.20;;;;;;1702606;29;20207;-85
2022/01/18 10:14:52;;;;;;;20.60;16.90;;;9.10;97.20;;;;;;1702828;29;20500;-85
2022/01/18 10:16:06;;;;;;;23.20;18.63;;;9.10;97.20;;;;;;1702854;29;20203;-85
2022/01/18 10:16:58;;;;;;;26.83;17.15;;;9.10;97.20;;;;;;1703010;29;20208;-85
2022/01/18 10:17:49;;;;;;;19.50;16.35;;;9.10;97.20;;;;;;1702581;29;20566;-85
2022/01/18 10:18:46;;;;;;;19.17;16.30;;;9.10;97.20;;;;;;1702811;29;20229;-85
2022/01/18 10:19:43;;;;;;;17.45;15.48;;;9.10;97.20;;;;;;1702922;29;20207;-85
2022/01/18 10:20:51;;;;;;;18.73;16.35;;;9.20;97.20;;;;;;1702826;29;20236;-85
2022/01/18 10:21:47;;;;;;;19.27;15.38;;;9.20;97.20;;;;;;1702761;29;20207;-85
2022/01/18 10:22:40;;;;;;;17.05;15.25;;;9.20;97.20;;;;;;1708703;29;20289;-85
2022/01/18 10:23:32;;;;;;;19.63;15.77;;;9.20;97.20;;;;;;1709162;28;20213;-85
2022/01/18 10:24:26;;;;;;;17.98;14.70;;;9.30;97.20;;;;;;1709572;28;20221;-85
2022/01/18 10:25:20;;;;;;;18.33;14.80;;;9.30;97.20;;;;;;1709347;28;20210;-85
2022/01/18 10:26:20;;;;;;;15.45;12.95;;;9.40;97.20;;;;;;1709570;28;20242;-85
2022/01/18 10:27:13;;;;;;;14.82;12.80;;;9.50;97.20;;;;;;1709121;28;20696;-85
2022/01/18 10:28:04;;;;;;;17.27;12.98;;;9.50;97.20;;;;;;1709314;28;20656;-85
2022/01/18 10:29:04;;;;;;;16.60;12.57;;;9.60;97.20;;;;;;1709114;28;20210;-85
2022/01/18 10:29:56;;;;;;;18.17;14.25;;;9.60;97.20;;;;;;1709434;28;20210;-85
2022/01/18 10:30:49;;;;;;;17.60;13.02;;;9.70;97.20;;;;;;1703585;28;20705;-85
2022/01/18 10:31:55;;;;;;;15.95;13.32;;;9.80;97.20;;;;;;1702528;29;20216;-85